• Join FlightAware (Why Join?)
  • Login
  • US Flag 
07:24PM EDT


 

Airport Tracker/Info


-or-


 

Live Flight TrackerFlight Track Log ✈ SKW6306 ✈ 27-Jun-2013 ✈ KDEN - KPSP

Flight Track Log - Related Links

Times and Time Zones

All times are in EDT time to prevent confusion due to time zone crossing. See the SKW6306 flight status page for this flight to view local times or setup timezone preferences in your user account.

Time Position Orientation Groundspeed Altitude Reporting Facility
EDT Latitude Longitude Course Direction KTS MPH feet Rate Location/Type
09:37PM 39.8000 -104.6500 191° South 195 224 6,500  Level Denver TRACON
09:38PM 39.7333 -104.6667 191° South 235 270 8,200 1,200 Climbing Denver TRACON
09:39PM 39.7000 -104.7333 237° Southwest 279 321 8,900 1,500 Climbing Denver TRACON
09:40PM 39.7000 -104.8333 270° West 269 310 11,100 1,980 Climbing Denver TRACON
09:41PM 39.7000 -104.9333 270° West 261 300 13,100 1,860 Climbing Denver TRACON
09:42PM 39.6833 -105.0167 255° West 255 293 15,100 1,200 Climbing Denver TRACON
09:43PM 39.6719 -105.1383 263° West 295 339 15,700 780 Climbing Denver Center
09:44PM 39.6439 -105.2497 252° West 322 371 16,800 1,020 Climbing Denver Center
09:45PM 39.6158 -105.3628 252° West 329 379 17,900 1,200 Climbing Denver Center
09:46PM 39.5850 -105.4853 252° West 334 384 19,300 1,140 Climbing Denver Center
09:47PM 39.5561 -105.5983 252° West 334 384 20,300 780 Climbing Denver Center
09:48PM 39.5167 -105.7439 251° West 350 403 21,200 720 Climbing Denver Center
09:49PM 39.4839 -105.8594 250° West 351 404 22,000 720 Climbing Denver Center
09:50PM 39.4517 -105.9800 251° West 354 407 22,800 600 Climbing Denver Center
09:51PM 39.4253 -106.0767 251° West 357 411 23,300 600 Climbing Denver Center
09:52PM 39.3803 -106.2322 250° West 365 420 24,100 660 Climbing Denver Center
09:53PM 39.3458 -106.3536 250° West 374 430 24,700 540 Climbing Denver Center
09:54PM 39.3053 -106.4978 250° West 382 440 25,300 540 Climbing Denver Center
09:55PM 39.2628 -106.6467 250° West 394 453 25,900 480 Climbing Denver Center
09:56PM 39.2158 -106.7711 244° Southwest 401 461 26,400 420 Climbing Denver Center
09:57PM 39.1642 -106.8683 236° Southwest 408 470 26,800 480 Climbing Denver Center
09:58PM 39.0831 -107.0264 237° Southwest 414 476 27,400 480 Climbing Denver Center
09:59PM 39.0214 -107.1442 236° Southwest 414 476 27,900 480 Climbing Denver Center
10:00PM 38.9497 -107.2825 236° Southwest 416 479 28,500 480 Climbing Denver Center
10:01PM 38.8883 -107.4019 237° Southwest 417 480 29,000 240 Climbing Denver Center
10:02PM 38.8164 -107.5394 236° Southwest 414 476 29,100 240 Climbing Denver Center
10:04PM 38.7506 -107.6639 236° Southwest 432 497 29,500 300 Climbing Denver Center
10:05PM 38.6867 -107.7856 236° Southwest 431 496 29,800 420 Climbing Denver Center
10:06PM 38.6122 -107.9267 236° Southwest 427 491 30,400 480 Climbing Denver Center
10:07PM 38.5472 -108.0469 235° Southwest 428 493 30,800 360 Climbing Denver Center
10:08PM 38.4733 -108.1867 236° Southwest 426 490 31,200 300 Climbing Denver Center
10:09PM 38.4089 -108.3072 236° Southwest 427 491 31,500 300 Climbing Denver Center
10:10PM 38.3333 -108.4481 236° Southwest 429 494 31,900 240 Climbing Denver Center
10:11PM 38.2678 -108.5689 235° Southwest 431 496 32,000  Climbing Denver Center
10:12PM 38.2014 -108.6911 235° Southwest 436 502 32,000  Level Denver Center
10:13PM 38.1222 -108.8361 235° Southwest 442 509 32,000  Level Denver Center
10:14PM 38.0544 -108.9628 236° Southwest 448 516 32,000  Level Denver Center
10:15PM 37.9647 -109.1200 234° Southwest 438 504 32,000  Level Denver Center
10:16PM 37.8981 -109.2428 235° Southwest 441 507 32,000  Level Denver Center
10:17PM 37.8206 -109.3828 235° Southwest 435 501 32,000  Level Denver Center
10:18PM 37.7550 -109.5003 235° Southwest 430 495 32,000  Level Denver Center
10:19PM 37.6786 -109.6389 235° Southwest 430 495 32,000  Level Denver Center
10:20PM 37.6119 -109.7544 234° Southwest 430 495 32,000  Level Denver Center
10:21PM 37.5361 -109.8914 235° Southwest 429 494 32,000  Level Denver Center
10:22PM 37.4689 -110.0083 234° Southwest 430 495 32,000  Level Denver Center
10:23PM 37.3911 -110.1453 234° Southwest 432 497 32,000  Level Denver Center
10:24PM 37.3272 -110.2567 234° Southwest 428 493 32,000  Level Denver Center
10:25PM 37.2586 -110.3781 235° Southwest 427 491 32,000  Level Denver Center
10:26PM 37.1883 -110.4986 234° Southwest 427 491 32,000  Level Denver Center
10:27PM 37.1039 -110.6436 234° Southwest 428 493 32,000  Level Denver Center
10:28PM 37.0347 -110.7661 235° Southwest 430 495 32,000  Level Denver Center
10:29PM 36.9642 -110.8867 234° Southwest 429 494 32,000  Level Denver Center
10:30PM 36.8933 -111.0078 234° Southwest 431 496 32,000  Level Denver Center
10:32PM 36.8231 -111.1289 234° Southwest 431 496 32,000  Level Denver Center
10:33PM 36.7539 -111.2486 234° Southwest 428 493 32,000  Level Denver Center
10:34PM 36.6825 -111.3686 233° Southwest 428 493 32,000  Level Denver Center
10:35PM 36.6092 -111.4908 233° Southwest 434 499 32,000  Level Denver Center
10:36PM 36.5244 -111.6344 234° Southwest 431 496 32,000  Level Denver Center
10:37PM 36.4536 -111.7547 234° Southwest 430 495 32,000  Level Denver Center
10:38PM 36.3803 -111.8756 233° Southwest 434 499 32,000  Level Denver Center
10:39PM 36.3083 -111.9958 233° Southwest 434 499 32,000  Level Denver Center
10:40PM 36.2369 -112.1156 234° Southwest 433 498 32,000  Level Denver Center
10:41PM 36.1644 -112.2344 233° Southwest 432 497 32,000  Level Denver Center
10:42PM 36.0631 -112.4008 233° Southwest 428 493 32,000  Level Los Angeles Center
10:43PM 35.9900 -112.5200 233° Southwest 431 496 32,000  Level Los Angeles Center
10:44PM 35.9008 -112.6683 233° Southwest 436 502 32,000 -180 Level Los Angeles Center
10:45PM 35.8283 -112.7858 233° Southwest 435 501 31,700 -720 Descending Los Angeles Center
10:46PM 35.7542 -112.9064 233° Southwest 444 511 30,600 -840 Descending Los Angeles Center
10:47PM 35.6764 -113.0325 233° Southwest 444 511 30,000 -300 Descending Los Angeles Center
10:49PM 35.5856 -113.1786 233° Southwest 448 516 30,000  Level Los Angeles Center
10:50PM 35.5194 -113.2864 233° Southwest 444 511 30,000  Level Los Angeles Center
10:51PM 35.4453 -113.4042 232° Southwest 443 510 30,000  Level Los Angeles Center
10:52PM 35.3575 -113.5442 232° Southwest 439 505 30,000  Level Los Angeles Center
10:53PM 35.2831 -113.6622 232° Southwest 441 507 30,000  Level Los Angeles Center
10:54PM 35.2086 -113.7789 232° Southwest 439 505 30,000 -60 Level Los Angeles Center
10:55PM 35.1358 -113.8958 233° Southwest 437 503 29,900 -540 Descending Los Angeles Center
10:56PM 35.0611 -114.0108 232° Southwest 440 506 29,000 -960 Descending Los Angeles Center
10:57PM 34.9739 -114.1469 232° Southwest 427 491 28,000 -540 Descending Los Angeles Center
10:58PM 34.9014 -114.2611 232° Southwest 425 489 28,000  Level Los Angeles Center
10:59PM 34.8261 -114.3775 232° Southwest 432 497 28,000  Level Los Angeles Center
11:00PM 34.7494 -114.4975 232° Southwest 446 513 28,000  Level Los Angeles Center
11:01PM 34.6719 -114.6142 231° Southwest 445 512 28,000  Level Los Angeles Center
11:02PM 34.5911 -114.7358 231° Southwest 444 511 28,000 -300 Level Los Angeles Center
11:03PM 34.5119 -114.8542 231° Southwest 450 518 27,500 -780 Descending Los Angeles Center
11:04PM 34.4347 -114.9703 231° Southwest 444 511 26,500 -1,020 Descending Los Angeles Center
11:05PM 34.3589 -115.0822 231° Southwest 434 499 25,500 -1,080 Descending Los Angeles Center
11:06PM 34.2825 -115.2242 237° Southwest 421 484 24,300 -1,080 Descending Los Angeles Center
11:07PM 34.2186 -115.3428 237° Southwest 422 486 23,300 -900 Descending Los Angeles Center
11:08PM 34.1572 -115.4633 238° Southwest 423 487 22,300 -1,860 Descending Los Angeles Center
11:09PM 34.0825 -115.6039 237° Southwest 417 480 19,100 -3,060 Descending Los Angeles Center
11:10PM 34.0203 -115.7183 237° Southwest 410 472 16,000 -2,640 Descending Los Angeles Center
11:11PM 33.9631 -115.8250 237° Southwest 388 447 13,700 -1,980 Descending Los Angeles Center
11:12PM 33.9128 -115.9189 237° Southwest 351 404 12,000 -1,920 Descending Los Angeles Center
11:13PM 33.9019 -116.0442 264° West 325 374 9,800 -1,920 Descending Los Angeles Center
11:14PM 33.9008 -116.1442 269° West 314 361 8,100 -1,380 Descending Los Angeles Center
11:15PM 33.9019 -116.2397 271° West 303 349 7,000 -960 Descending Los Angeles Center
11:17PM 33.9011 -116.3294 269° West 290 334 6,200 -540 Descending Los Angeles Center
11:18PM 33.9003 -116.3947 269° West 288 331 6,000 -1,440 Descending Los Angeles Center
11:19PM 33.7833 -116.4000 182° South 223 257 2,600 -1,680 Descending Southern California TRACON
11:20PM 33.7667 -116.4500 248° West 191 220 1,800 -900 Descending Southern California TRACON
11:21PM 33.8167 -116.4833 331° Northwest 153 176 800 -960 Descending Southern California TRACON
11:23PM 33.8167 -116.5000 256° West  Level FlightAware Approximate
11:30PM 33.8297 -116.5067 256° West  Level Estimated